Time;durP1;ratioP1;P1;durP2;ratioP2;P2;SDS_P1;SDS_P2;PMS_P1;PMS_P2;Temp;Humidity;BMP_temperature;BMP_pressure;BME280_temperature;BME280_humidity;BME280_pressure;Samples;Min_cycle;Max_cycle;Signal;HPM_P1;HPM_P2
2022/01/03 00:01:48;;;;;;;8.60;4.00;;;;;;;8.76;84.49;99280.02;84567;1331;23025;-70
2022/01/03 00:03:57;;;;;;;5.60;3.90;;;;;;;8.75;84.26;99275.02;84577;1330;22598;-71
2022/01/03 00:06:06;;;;;;;6.20;3.90;;;;;;;8.75;84.07;99272.08;84558;1332;22595;-70
2022/01/03 00:08:15;;;;;;;8.40;4.00;;;;;;;8.75;84.19;99273.29;84571;1330;22623;-71
2022/01/03 00:10:24;;;;;;;9.40;4.40;;;;;;;8.73;84.06;99270.12;84563;1333;22626;-76
2022/01/03 00:12:33;;;;;;;8.70;5.10;;;;;;;8.70;83.94;99268.49;84583;1330;25457;-71
2022/01/03 00:14:42;;;;;;;5.40;4.00;;;;;;;8.64;83.93;99266.71;84589;1331;22626;-74
2022/01/03 00:16:54;;;;;;;7.10;4.10;;;;;;;8.59;83.87;99265.89;84585;1333;25256;-75
2022/01/03 00:19:03;;;;;;;8.20;4.40;;;;;;;8.57;83.91;99259.92;84586;1333;22715;-75
2022/01/03 00:21:15;;;;;;;4.60;3.50;;;;;;;8.56;83.92;99258.77;84611;1333;22778;-76
2022/01/03 00:23:24;;;;;;;5.40;3.30;;;;;;;8.56;84.07;99261.52;84573;1333;22617;-75
2022/01/03 00:25:35;;;;;;;7.70;4.30;;;;;;;8.58;84.11;99263.55;84581;1333;23150;-70
2022/01/03 00:27:51;;;;;;;6.10;4.40;;;;;;;8.58;84.19;99257.45;84572;1334;26526;-70
2022/01/03 00:29:59;;;;;;;6.20;4.10;;;;;;;8.61;84.20;99258.36;84604;1334;24242;-71
2022/01/03 00:32:09;;;;;;;10.10;4.90;;;;;;;8.62;84.03;99260.56;84550;1333;26601;-70
2022/01/03 00:34:18;;;;;;;6.80;4.40;;;;;;;8.63;83.93;99263.80;84584;1330;22655;-71
2022/01/03 00:36:30;;;;;;;7.00;3.80;;;;;;;8.65;83.84;99261.45;84575;1333;22607;-70
2022/01/03 00:38:39;;;;;;;4.60;3.50;;;;;;;8.67;83.69;99268.48;84582;1335;25983;-71
2022/01/03 00:40:50;;;;;;;6.70;3.70;;;;;;;8.70;83.72;99267.13;84561;1330;24034;-70
2022/01/03 00:42:59;;;;;;;6.60;3.90;;;;;;;8.73;83.57;99267.15;84570;1335;22613;-71
2022/01/03 00:45:12;;;;;;;6.80;3.70;;;;;;;8.74;83.60;99261.85;84605;1328;22616;-71
2022/01/03 00:47:21;;;;;;;5.90;3.80;;;;;;;8.77;83.38;99265.91;84569;1333;24175;-70
2022/01/03 00:49:33;;;;;;;7.40;3.90;;;;;;;8.78;83.12;99264.48;84599;1330;22616;-73
2022/01/03 00:51:44;;;;;;;7.20;3.90;;;;;;;8.78;83.08;99262.90;84597;1328;22617;-70
2022/01/03 00:53:56;;;;;;;5.60;3.60;;;;;;;8.80;82.99;99262.47;84559;1332;22597;-70
2022/01/03 00:56:13;;;;;;;7.00;4.20;;;;;;;8.81;82.65;99256.31;84566;1332;22600;-70
2022/01/03 00:58:26;;;;;;;5.40;3.50;;;;;;;8.84;82.63;99256.02;84579;1331;22613;-70
2022/01/03 01:00:37;;;;;;;5.30;3.50;;;;;;;8.86;82.46;99255.91;84575;1330;22592;-71
2022/01/03 01:02:49;;;;;;;5.40;3.60;;;;;;;8.87;82.38;99251.86;84576;1330;22614;-72
2022/01/03 01:04:58;;;;;;;7.20;4.00;;;;;;;8.89;82.37;99240.84;84575;1330;22681;-70
2022/01/03 01:07:09;;;;;;;5.20;3.50;;;;;;;8.90;82.05;99246.84;84570;1332;25439;-70
2022/01/03 01:09:20;;;;;;;5.80;3.80;;;;;;;8.90;81.87;99254.16;84587;1334;22676;-71
2022/01/03 01:11:32;;;;;;;6.50;4.00;;;;;;;8.89;81.73;99243.23;84553;1332;22633;-71
2022/01/03 01:13:44;;;;;;;6.00;3.40;;;;;;;8.90;81.79;99246.13;84548;1332;25454;-70
2022/01/03 01:15:53;;;;;;;4.00;3.00;;;;;;;8.92;81.80;99242.77;84561;1330;23981;-75
2022/01/03 01:18:05;;;;;;;5.40;3.30;;;;;;;8.93;81.45;99238.73;84587;1333;24389;-75
2022/01/03 01:20:16;;;;;;;4.60;3.70;;;;;;;8.94;81.63;99241.80;84620;1328;24242;-76
2022/01/03 01:22:30;;;;;;;6.80;3.60;;;;;;;8.93;81.53;99237.82;84560;1330;22965;-76
2022/01/03 01:24:48;;;;;;;6.20;3.50;;;;;;;8.94;81.50;99239.67;84565;1332;23086;-76
2022/01/03 01:29:23;;;;;;;4.70;3.30;;;;;;;8.92;81.07;99223.45;84537;1331;22735;-76
2022/01/03 01:31:33;;;;;;;5.20;3.10;;;;;;;8.92;80.99;99223.80;84575;1334;24191;-76
2022/01/03 01:33:42;;;;;;;6.50;3.50;;;;;;;8.90;80.79;99218.31;84584;1334;22597;-77
2022/01/03 01:35:56;;;;;;;5.30;2.50;;;;;;;8.88;80.87;99218.06;84605;1332;24375;-71
2022/01/03 01:38:05;;;;;;;3.40;3.00;;;;;;;8.88;80.48;99221.39;84557;1329;22648;-72
2022/01/03 01:40:17;;;;;;;5.50;3.30;;;;;;;8.87;80.86;99216.05;84573;1329;23945;-75
2022/01/03 01:42:26;;;;;;;5.10;2.90;;;;;;;8.86;80.76;99219.40;84591;1331;24291;-76
2022/01/03 01:44:40;;;;;;;5.00;3.00;;;;;;;8.85;80.25;99227.60;84555;1331;25454;-75
2022/01/03 01:46:56;;;;;;;5.90;3.00;;;;;;;8.84;80.64;99222.96;84600;1329;22750;-75
2022/01/03 01:49:07;;;;;;;4.70;2.50;;;;;;;8.82;80.42;99227.77;84613;1329;24361;-74
2022/01/03 01:51:18;;;;;;;;;;;;;;;8.83;80.51;99229.84;84594;1330;25533;-70
2022/01/03 01:53:30;;;;;;;7.00;2.50;;;;;;;8.81;80.54;99234.06;84577;1334;22610;-69
2022/01/03 01:55:43;;;;;;;5.40;2.60;;;;;;;8.85;80.52;99229.73;84603;1335;22612;-75
2022/01/03 01:58:05;;;;;;;5.80;2.80;;;;;;;8.85;80.08;99222.38;84576;1327;22629;-75
2022/01/03 02:00:17;;;;;;;4.10;2.70;;;;;;;8.86;80.21;99230.86;84628;1333;22589;-75
2022/01/03 02:02:35;;;;;;;4.60;2.60;;;;;;;8.85;80.10;99226.72;84582;1324;22765;-75
2022/01/03 02:04:58;;;;;;;5.20;3.70;;;;;;;8.85;80.25;99226.77;84594;1333;24286;-75
2022/01/03 02:07:35;;;;;;;5.00;2.90;;;;;;;8.83;80.29;99230.67;84599;1330;25313;-74
2022/01/03 02:10:00;;;;;;;7.90;3.70;;;;;;;8.81;80.12;99225.03;84590;1326;23827;-70
2022/01/03 02:12:16;;;;;;;7.10;2.80;;;;;;;8.80;80.14;99224.20;84571;1331;22622;-70
2022/01/03 02:14:36;;;;;;;3.60;2.60;;;;;;;8.80;80.15;99221.06;84573;1332;26669;-71
2022/01/03 02:16:45;;;;;;;5.00;3.10;;;;;;;8.81;80.13;99220.30;84587;1333;24016;-71
2022/01/03 02:18:54;;;;;;;4.10;2.30;;;;;;;8.82;80.20;99219.60;84589;1330;25310;-69
2022/01/03 02:21:06;;;;;;;6.00;3.30;;;;;;;8.81;80.11;99209.89;84540;1332;23175;-71
2022/01/03 02:23:19;;;;;;;5.10;3.10;;;;;;;8.80;80.17;99212.55;84588;1331;23979;-71
2022/01/03 02:25:29;;;;;;;6.10;3.30;;;;;;;8.76;80.01;99203.86;84587;1333;22606;-76
2022/01/03 02:27:39;;;;;;;5.70;2.90;;;;;;;8.72;79.77;99199.38;84550;1333;25312;-76
2022/01/03 02:29:50;;;;;;;7.90;3.20;;;;;;;8.67;79.81;99201.01;84503;1332;22681;-71
2022/01/03 02:32:00;;;;;;;3.70;2.10;;;;;;;8.64;79.81;99204.15;84564;1332;24136;-70
2022/01/03 02:34:10;;;;;;;5.10;2.90;;;;;;;8.61;79.87;99203.59;84567;1330;25272;-71
2022/01/03 02:36:19;;;;;;;4.90;2.80;;;;;;;8.58;80.05;99206.69;84579;1330;22808;-74
2022/01/03 02:38:28;;;;;;;5.00;3.20;;;;;;;8.53;79.98;99205.52;84547;1332;24305;-76
2022/01/03 02:40:38;;;;;;;4.40;3.00;;;;;;;8.47;79.97;99203.38;84562;1332;22768;-75
2022/01/03 02:42:48;;;;;;;5.70;3.10;;;;;;;8.43;80.17;99209.48;84565;1331;22600;-74
2022/01/03 02:45:06;;;;;;;4.50;3.00;;;;;;;8.38;80.31;99194.58;84599;1331;24265;-71
2022/01/03 02:47:23;;;;;;;6.60;3.00;;;;;;;8.35;80.49;99195.76;84587;1330;22603;-71
2022/01/03 02:49:36;;;;;;;4.00;2.90;;;;;;;8.35;80.46;99190.38;84601;1332;22745;-74
2022/01/03 02:51:47;;;;;;;2.40;2.20;;;;;;;8.34;80.38;99198.08;84552;1330;22588;-70
2022/01/03 02:53:59;;;;;;;4.40;2.10;;;;;;;8.33;80.37;99193.80;84575;1331;25327;-72
2022/01/03 02:56:11;;;;;;;3.80;2.50;;;;;;;8.29;80.31;99195.17;84559;1332;23092;-75
2022/01/03 02:58:23;;;;;;;4.80;2.80;;;;;;;8.25;80.25;99196.75;84562;1331;22603;-76
2022/01/03 03:00:33;;;;;;;5.30;2.60;;;;;;;8.20;80.35;99201.34;84545;1333;23918;-71
2022/01/03 03:02:42;;;;;;;4.00;2.10;;;;;;;8.14;80.51;99192.73;84556;1326;25293;-71
2022/01/03 03:04:59;;;;;;;4.50;2.30;;;;;;;8.08;80.50;99192.01;84574;1331;22826;-76
2022/01/03 03:07:21;;;;;;;3.20;1.90;;;;;;;8.03;80.60;99187.52;84575;1331;23938;-76
2022/01/03 03:09:32;;;;;;;4.60;1.80;;;;;;;7.98;80.59;99190.56;84594;1330;22641;-74
2022/01/03 03:11:41;;;;;;;3.60;1.60;;;;;;;7.95;80.62;99189.81;84571;1331;22596;-74
2022/01/03 03:13:50;;;;;;;4.40;2.20;;;;;;;7.91;80.73;99188.60;84565;1333;22817;-76
2022/01/03 03:16:03;;;;;;;5.50;2.20;;;;;;;7.87;80.81;99183.09;84583;1330;22672;-75
2022/01/03 03:18:15;;;;;;;3.40;2.20;;;;;;;7.82;80.91;99182.25;84584;1332;22603;-75
2022/01/03 03:20:28;;;;;;;4.10;2.50;;;;;;;7.77;80.91;99178.14;84562;1334;24138;-75
2022/01/03 03:22:37;;;;;;;3.20;2.40;;;;;;;7.71;81.10;99177.69;84580;1331;22599;-75
2022/01/03 03:24:46;;;;;;;6.00;2.40;;;;;;;7.68;81.04;99183.58;84547;1333;26554;-75
2022/01/03 03:26:57;;;;;;;5.50;2.00;;;;;;;7.64;81.19;99184.65;84544;1332;22951;-75
2022/01/03 03:29:06;;;;;;;3.50;2.20;;;;;;;7.61;81.23;99189.28;84556;1332;25350;-75
2022/01/03 03:31:18;;;;;;;2.20;1.90;;;;;;;7.57;81.41;99194.14;84529;1334;22658;-75
2022/01/03 03:33:29;;;;;;;7.30;3.30;;;;;;;7.54;81.52;99191.86;84569;1330;26032;-75
2022/01/03 03:35:38;;;;;;;8.70;3.20;;;;;;;7.50;81.55;99194.45;84575;1331;23616;-75
2022/01/03 03:37:49;;;;;;;4.10;2.80;;;;;;;7.46;81.57;99189.95;84558;1330;22603;-76
2022/01/03 03:40:01;;;;;;;4.30;2.40;;;;;;;7.41;81.77;99193.30;84544;1331;22616;-76
2022/01/03 03:42:13;;;;;;;2.90;2.00;;;;;;;7.37;81.75;99193.63;84561;1327;22758;-75
2022/01/03 03:44:25;;;;;;;2.30;2.10;;;;;;;7.34;81.91;99184.56;84568;1333;24383;-75
2022/01/03 03:46:33;;;;;;;2.50;2.10;;;;;;;7.33;82.02;99187.22;84548;1328;22600;-76
2022/01/03 03:48:42;;;;;;;5.80;2.30;;;;;;;7.34;81.90;99192.21;84541;1330;22688;-75
2022/01/03 03:50:51;;;;;;;2.70;1.80;;;;;;;7.35;81.91;99190.96;84576;1326;22681;-75
2022/01/03 03:53:00;;;;;;;4.00;2.60;;;;;;;7.35;81.95;99190.09;84564;1330;22603;-75
2022/01/03 03:55:10;;;;;;;3.90;2.70;;;;;;;7.34;81.85;99190.81;84599;1331;22593;-71
2022/01/03 03:57:19;;;;;;;3.00;2.00;;;;;;;7.33;81.83;99185.84;84577;1335;25530;-71
2022/01/03 03:59:31;;;;;;;4.40;2.50;;;;;;;7.30;81.55;99191.35;84561;1330;24460;-71
2022/01/03 04:01:43;;;;;;;5.70;2.50;;;;;;;7.27;81.81;99187.16;84547;1330;22865;-71
2022/01/03 04:03:55;;;;;;;4.00;2.10;;;;;;;7.22;81.74;99186.81;84563;1331;25639;-71
2022/01/03 04:06:07;;;;;;;3.00;2.30;;;;;;;7.18;81.69;99186.67;84584;1330;22606;-75
2022/01/03 04:08:16;;;;;;;2.90;1.80;;;;;;;7.13;81.82;99185.66;84561;1332;22594;-76
2022/01/03 04:10:27;;;;;;;3.10;2.30;;;;;;;7.08;81.96;99184.14;84562;1331;22617;-70
2022/01/03 04:12:36;;;;;;;4.10;2.80;;;;;;;7.05;82.00;99182.70;84537;1335;25433;-72
2022/01/03 04:14:45;;;;;;;4.20;2.50;;;;;;;7.03;82.23;99180.88;84584;1330;22642;-75
2022/01/03 04:16:57;;;;;;;4.10;2.30;;;;;;;6.99;82.23;99181.89;84583;1324;24322;-75
2022/01/03 04:19:06;;;;;;;6.60;3.10;;;;;;;6.95;82.03;99182.59;84568;1332;22615;-76
2022/01/03 04:21:14;;;;;;;5.80;3.10;;;;;;;6.89;82.07;99180.42;84571;1330;22591;-71
2022/01/03 04:23:27;;;;;;;2.90;2.60;;;;;;;6.85;82.20;99185.29;84550;1330;22621;-71
2022/01/03 04:25:35;;;;;;;3.40;2.20;;;;;;;6.80;82.24;99182.70;84579;1333;22736;-76
2022/01/03 04:27:48;;;;;;;5.10;2.10;;;;;;;6.78;82.22;99179.02;84567;1330;22802;-75
2022/01/03 04:29:56;;;;;;;6.00;2.90;;;;;;;6.75;82.40;99175.46;84567;1333;22621;-71
2022/01/03 04:32:06;;;;;;;4.70;2.50;;;;;;;6.73;82.76;99178.33;84566;1335;22600;-71
2022/01/03 04:34:18;;;;;;;3.90;3.10;;;;;;;6.69;82.66;99176.40;84559;1330;22586;-70
2022/01/03 04:36:27;;;;;;;4.60;3.60;;;;;;;6.66;82.77;99173.05;84586;1331;23921;-70
2022/01/03 04:38:38;;;;;;;5.90;3.00;;;;;;;6.63;83.22;99170.91;84566;1332;25367;-71
2022/01/03 04:40:50;;;;;;;5.90;3.60;;;;;;;6.61;83.21;99170.34;84583;1331;22943;-76
2022/01/03 04:42:59;;;;;;;8.10;3.90;;;;;;;6.61;83.38;99171.89;84562;1334;22815;-75
2022/01/03 04:45:12;;;;;;;5.90;3.10;;;;;;;6.59;83.40;99177.35;84535;1327;24282;-70
2022/01/03 04:47:21;;;;;;;4.20;3.00;;;;;;;6.57;83.33;99183.65;84563;1331;23707;-71
2022/01/03 04:49:32;;;;;;;5.60;3.30;;;;;;;6.57;83.61;99184.88;84556;1332;22665;-73
2022/01/03 04:51:41;;;;;;;5.60;3.50;;;;;;;6.57;83.71;99183.66;84365;1330;302325;-71
2022/01/03 04:53:53;;;;;;;5.80;3.50;;;;;;;6.55;83.73;99185.30;84556;1331;22747;-71
2022/01/03 04:56:01;;;;;;;6.80;3.30;;;;;;;6.54;83.92;99183.98;84561;1327;22767;-71
2022/01/03 04:58:11;;;;;;;5.70;3.70;;;;;;;6.51;84.02;99185.46;84571;1331;24215;-71
2022/01/03 05:00:21;;;;;;;7.30;4.00;;;;;;;6.50;84.02;99185.00;84581;1330;24283;-71
2022/01/03 05:02:30;;;;;;;8.40;3.00;;;;;;;6.50;84.12;99187.77;84590;1332;22734;-72
2022/01/03 05:04:39;;;;;;;5.90;2.80;;;;;;;6.50;84.03;99183.60;84587;1330;24282;-72
2022/01/03 05:06:47;;;;;;;5.40;2.60;;;;;;;6.51;84.03;99189.30;84548;1330;24205;-72
2022/01/03 05:08:56;;;;;;;10.50;2.80;;;;;;;6.50;84.15;99186.91;84582;1331;24267;-71
2022/01/03 05:11:05;;;;;;;6.00;3.40;;;;;;;6.49;84.15;99187.63;84546;1331;22652;-75
2022/01/03 05:13:14;;;;;;;5.40;3.50;;;;;;;6.48;84.33;99192.34;84558;1329;22593;-76
2022/01/03 05:15:26;;;;;;;4.80;3.50;;;;;;;6.45;84.31;99195.55;84592;1331;22590;-75
2022/01/03 05:17:34;;;;;;;6.10;3.00;;;;;;;6.43;84.32;99196.86;84559;1327;24327;-75
2022/01/03 05:19:46;;;;;;;3.70;2.90;;;;;;;6.42;84.30;99200.56;84554;1327;22591;-71
2022/01/03 05:21:55;;;;;;;5.20;2.40;;;;;;;6.40;84.37;99202.20;84547;1329;22633;-70
2022/01/03 05:24:04;;;;;;;7.00;3.60;;;;;;;6.41;84.45;99200.77;84562;1330;22712;-70
2022/01/03 05:26:14;;;;;;;5.00;3.20;;;;;;;6.41;84.56;99197.46;84546;1331;23932;-70
2022/01/03 05:28:26;;;;;;;3.10;2.70;;;;;;;6.42;84.33;99195.70;84572;1332;24247;-70
2022/01/03 05:30:38;;;;;;;6.80;3.30;;;;;;;6.44;84.52;99191.98;84598;1329;22719;-74
2022/01/03 05:32:47;;;;;;;6.20;3.30;;;;;;;6.43;84.64;99193.59;84562;1330;22621;-74
2022/01/03 05:34:56;;;;;;;9.90;3.90;;;;;;;6.41;84.68;99198.84;84534;1329;22605;-70
2022/01/03 05:37:08;;;;;;;6.20;4.00;;;;;;;6.38;84.60;99197.73;84554;1331;22600;-70
2022/01/03 05:39:20;;;;;;;6.10;3.60;;;;;;;6.37;84.56;99195.56;84566;1330;22882;-70
2022/01/03 05:41:29;;;;;;;9.30;3.80;;;;;;;6.35;84.38;99201.34;84584;1330;22619;-71
2022/01/03 05:43:41;;;;;;;8.70;2.90;;;;;;;6.36;84.78;99203.94;84567;1334;22596;-71
2022/01/03 05:45:53;;;;;;;3.80;3.30;;;;;;;6.35;84.47;99198.39;84563;1327;22626;-77
2022/01/03 05:48:05;;;;;;;7.30;3.30;;;;;;;6.35;84.77;99202.20;84570;1332;23915;-75
2022/01/03 05:50:17;;;;;;;6.50;3.60;;;;;;;6.36;84.87;99193.52;84557;1333;22590;-70
2022/01/03 05:52:29;;;;;;;5.70;3.30;;;;;;;6.36;84.95;99200.27;84565;1331;22729;-70
2022/01/03 05:54:38;;;;;;;5.10;3.60;;;;;;;6.35;84.88;99190.11;84536;1331;23915;-75
2022/01/03 05:56:49;;;;;;;5.90;3.50;;;;;;;6.34;84.90;99197.06;84570;1330;25462;-74
2022/01/03 05:58:58;;;;;;;7.30;2.70;;;;;;;6.34;84.79;99194.97;84541;1329;22613;-75
2022/01/03 06:01:07;;;;;;;6.70;2.90;;;;;;;6.35;84.93;99197.02;84568;1327;22692;-75
2022/01/03 06:03:20;;;;;;;5.60;3.40;;;;;;;6.36;84.97;99193.50;84553;1333;24381;-73
2022/01/03 06:05:41;;;;;;;5.30;3.20;;;;;;;6.36;84.88;99194.20;84536;1329;25454;-70
2022/01/03 06:07:53;;;;;;;5.10;3.50;;;;;;;6.35;84.85;99198.23;84545;1330;24424;-71
2022/01/03 06:10:03;;;;;;;7.30;4.00;;;;;;;6.33;84.90;99200.39;84581;1329;24294;-70
2022/01/03 06:12:12;;;;;;;5.50;3.70;;;;;;;6.32;85.02;99197.15;84565;1334;23005;-70
2022/01/03 06:14:26;;;;;;;7.80;3.60;;;;;;;6.30;84.97;99198.08;84567;1330;23895;-70
2022/01/03 06:16:35;;;;;;;6.90;2.90;;;;;;;6.29;85.00;99202.97;84559;1327;22620;-75
2022/01/03 06:18:48;;;;;;;4.10;3.20;;;;;;;6.28;84.91;99201.46;84587;1330;22632;-74
2022/01/03 06:21:01;;;;;;;4.30;3.20;;;;;;;6.28;84.98;99206.48;84533;1330;22847;-75
2022/01/03 06:23:13;;;;;;;5.30;3.30;;;;;;;6.30;85.02;99205.70;84580;1330;22617;-74
2022/01/03 06:25:22;;;;;;;10.10;3.70;;;;;;;6.30;85.14;99210.56;84594;1330;24379;-75
2022/01/03 06:27:31;;;;;;;3.80;3.30;;;;;;;6.29;85.14;99211.11;84557;1332;22602;-73
2022/01/03 06:29:40;;;;;;;4.90;4.40;;;;;;;6.28;85.16;99215.16;84576;1334;23934;-71
2022/01/03 06:31:52;;;;;;;6.50;3.40;;;;;;;6.27;85.23;99216.41;84554;1330;24239;-70
2022/01/03 06:34:01;;;;;;;5.40;3.30;;;;;;;6.27;85.23;99217.08;84531;1328;22605;-70
2022/01/03 06:36:13;;;;;;;5.10;3.30;;;;;;;6.27;85.15;99221.40;84586;1330;22813;-70
2022/01/03 06:38:21;;;;;;;6.90;4.50;;;;;;;6.30;85.13;99219.39;84565;1330;24363;-70
2022/01/03 06:40:33;;;;;;;7.00;3.40;;;;;;;6.35;85.38;99224.73;84532;1329;25450;-69
2022/01/03 06:42:42;;;;;;;3.30;2.70;;;;;;;6.39;85.34;99227.87;84562;1330;23982;-70
2022/01/03 06:44:54;;;;;;;6.30;4.40;;;;;;;6.40;85.16;99234.06;84531;1327;22627;-71
2022/01/03 06:47:06;;;;;;;62.70;37.90;;;;;;;6.40;85.23;99236.48;84547;1326;22715;-70
2022/01/03 06:49:18;;;;;;;9.30;5.50;;;;;;;6.40;85.00;99237.52;84558;1332;22605;-70
2022/01/03 06:51:34;;;;;;;6.00;3.60;;;;;;;6.39;84.94;99234.95;84550;1331;22617;-74
2022/01/03 06:53:46;;;;;;;5.80;3.70;;;;;;;6.39;85.05;99233.58;84567;1330;22608;-75
2022/01/03 06:55:55;;;;;;;6.20;3.60;;;;;;;6.39;84.99;99231.31;84578;1332;22612;-70
2022/01/03 06:58:07;;;;;;;5.60;3.70;;;;;;;6.41;84.99;99233.33;84547;1332;22621;-69
2022/01/03 07:00:17;;;;;;;6.30;4.00;;;;;;;6.42;85.04;99229.31;84572;1333;22767;-74
2022/01/03 07:02:26;;;;;;;8.10;4.50;;;;;;;6.43;84.92;99231.33;84576;1329;23894;-76
2022/01/03 07:04:38;;;;;;;7.20;4.30;;;;;;;6.43;84.99;99225.98;84565;1332;22603;-71
2022/01/03 07:06:50;;;;;;;9.70;5.50;;;;;;;6.42;84.90;99228.77;84556;1332;26187;-71
2022/01/03 07:09:07;;;;;;;6.30;3.60;;;;;;;6.42;84.93;99226.55;84553;1324;22817;-70
2022/01/03 07:11:16;;;;;;;7.30;4.00;;;;;;;6.42;84.93;99224.11;84579;1332;22603;-75
2022/01/03 07:13:31;;;;;;;7.10;4.20;;;;;;;6.43;84.93;99223.69;84573;1335;23065;-75
2022/01/03 07:20:47;;;;;;;8.50;4.30;;;;;;;6.46;85.06;99226.54;84556;1330;22592;-70
2022/01/03 07:23:00;;;;;;;8.30;4.60;;;;;;;6.51;85.47;99230.89;84582;1330;24267;-70
2022/01/03 07:25:10;;;;;;;6.20;4.60;;;;;;;6.54;85.30;99234.18;84593;1333;23915;-74
2022/01/03 07:27:19;;;;;;;6.90;4.00;;;;;;;6.57;85.25;99237.36;84556;1334;23881;-76
2022/01/03 07:29:28;;;;;;;7.30;4.30;;;;;;;6.61;85.22;99232.39;84590;1331;22592;-75
2022/01/03 07:31:37;;;;;;;7.60;3.70;;;;;;;6.65;85.15;99239.83;84552;1330;22643;-71
2022/01/03 07:33:46;;;;;;;5.40;4.10;;;;;;;6.70;85.27;99234.92;84539;1332;22693;-70
2022/01/03 07:35:55;;;;;;;6.50;4.20;;;;;;;6.78;85.44;99236.36;84577;1327;22593;-74
2022/01/03 07:38:04;;;;;;;6.10;4.10;;;;;;;6.86;85.41;99238.46;84550;1332;25495;-72
2022/01/03 07:40:17;;;;;;;6.90;4.70;;;;;;;6.93;85.30;99234.90;84592;1330;22847;-70
2022/01/03 07:42:30;;;;;;;5.30;4.10;;;;;;;6.99;85.29;99237.91;84571;1331;22613;-71
2022/01/03 07:44:40;;;;;;;7.40;4.40;;;;;;;7.05;85.12;99236.13;84568;1328;22749;-70
2022/01/03 07:46:51;;;;;;;7.00;4.50;;;;;;;7.13;85.01;99232.66;84553;1330;22615;-71
2022/01/03 07:49:04;;;;;;;6.90;4.20;;;;;;;7.19;84.89;99237.95;84557;1331;22789;-71
2022/01/03 07:51:16;;;;;;;7.40;4.70;;;;;;;7.26;84.96;99234.38;84596;1327;23032;-75
2022/01/03 07:53:27;;;;;;;8.60;4.40;;;;;;;7.32;84.79;99234.98;84560;1322;22614;-75
2022/01/03 07:55:36;;;;;;;6.30;4.80;;;;;;;7.38;84.77;99235.23;84563;1331;22660;-71
2022/01/03 07:57:45;;;;;;;7.70;4.70;;;;;;;7.42;84.47;99228.66;84570;1330;22646;-70
2022/01/03 07:59:55;;;;;;;7.60;4.30;;;;;;;7.45;84.66;99230.59;84578;1332;22614;-74
2022/01/03 08:02:07;;;;;;;6.70;4.90;;;;;;;7.45;84.27;99226.41;84574;1333;24263;-75
2022/01/03 08:04:19;;;;;;;4.90;3.80;;;;;;;7.45;84.14;99228.86;84554;1333;22584;-75
2022/01/03 08:06:29;;;;;;;5.50;3.70;;;;;;;7.47;84.12;99221.98;84548;1332;22801;-70
2022/01/03 08:08:38;;;;;;;5.70;3.70;;;;;;;7.48;84.06;99224.71;84560;1332;22623;-70
2022/01/03 08:10:47;;;;;;;7.90;4.10;;;;;;;7.48;83.86;99223.83;84589;1332;22628;-71
2022/01/03 08:12:59;;;;;;;8.10;4.70;;;;;;;7.49;84.02;99225.36;84548;1331;22596;-70
2022/01/03 08:15:10;;;;;;;8.00;3.80;;;;;;;7.53;83.89;99224.01;84559;1333;24225;-75
2022/01/03 08:17:22;;;;;;;7.90;5.00;;;;;;;7.55;83.88;99225.14;84563;1331;22711;-74
2022/01/03 08:19:31;;;;;;;8.40;3.70;;;;;;;7.56;83.90;99220.55;84590;1328;22547;-73
2022/01/03 08:21:43;;;;;;;5.10;4.10;;;;;;;7.58;83.76;99224.84;84546;1332;22626;-74
2022/01/03 08:23:55;;;;;;;4.30;3.50;;;;;;;7.59;83.71;99226.70;84542;1331;25347;-75
2022/01/03 08:26:07;;;;;;;7.20;5.20;;;;;;;7.60;83.61;99222.63;84580;1327;22942;-74
2022/01/03 08:28:19;;;;;;;8.30;4.10;;;;;;;7.62;83.55;99222.36;84562;1331;22596;-75
2022/01/03 08:30:30;;;;;;;11.00;4.90;;;;;;;7.67;83.61;99223.91;84576;1330;22786;-74
2022/01/03 08:32:39;;;;;;;8.00;5.60;;;;;;;7.70;83.57;99226.71;84556;1330;22842;-75
2022/01/03 08:34:51;;;;;;;8.70;4.80;;;;;;;7.72;83.47;99222.61;84562;1330;22769;-70
2022/01/03 08:37:03;;;;;;;8.10;5.30;;;;;;;7.74;83.53;99224.26;84586;1335;22629;-71
2022/01/03 08:39:15;;;;;;;9.50;5.60;;;;;;;7.77;83.53;99225.71;84553;1328;22633;-71
2022/01/03 08:41:27;;;;;;;12.00;6.10;;;;;;;7.76;83.48;99222.10;84564;1333;23183;-75
2022/01/03 08:43:37;;;;;;;11.70;5.40;;;;;;;7.77;83.38;99226.23;84568;1332;22607;-75
2022/01/03 08:45:49;;;;;;;10.30;5.60;;;;;;;7.79;83.51;99224.92;84536;1330;22708;-71
2022/01/03 08:48:00;;;;;;;7.40;5.30;;;;;;;7.83;83.39;99223.00;84549;1330;22615;-76
2022/01/03 08:50:11;;;;;;;11.10;5.60;;;;;;;7.86;83.39;99227.06;84573;1330;22909;-71
2022/01/03 08:52:22;;;;;;;9.00;6.10;;;;;;;7.88;83.34;99223.64;84593;1330;22616;-71
2022/01/03 08:54:31;;;;;;;9.10;6.10;;;;;;;7.90;83.28;99224.45;84567;1329;23975;-72
2022/01/03 08:56:44;;;;;;;9.80;6.00;;;;;;;7.91;83.28;99229.08;84586;1331;22653;-71
2022/01/03 08:58:53;;;;;;;8.50;6.00;;;;;;;7.91;83.19;99227.70;84576;1330;25337;-71
2022/01/03 09:01:02;;;;;;;7.70;5.40;;;;;;;7.89;83.25;99229.14;84544;1330;22607;-75
2022/01/03 09:03:12;;;;;;;9.80;5.50;;;;;;;7.90;83.08;99233.48;84593;1331;25519;-76
2022/01/03 09:05:20;;;;;;;9.30;5.60;;;;;;;7.88;83.03;99233.20;84581;1332;22603;-75
2022/01/03 09:07:30;;;;;;;8.60;5.20;;;;;;;7.88;83.17;99233.89;84553;1332;24115;-69
2022/01/03 09:09:40;;;;;;;8.30;4.90;;;;;;;7.91;83.23;99233.95;84581;1330;22545;-75
2022/01/03 09:12:00;;;;;;;8.40;5.50;;;;;;;7.93;83.36;99237.81;84592;1332;25467;-74
2022/01/03 09:14:18;;;;;;;7.60;5.40;;;;;;;7.96;83.34;99237.67;84610;1326;22679;-76
2022/01/03 09:16:27;;;;;;;9.50;6.30;;;;;;;7.98;83.34;99231.00;84565;1333;22628;-75
2022/01/03 09:18:50;;;;;;;9.90;6.20;;;;;;;7.99;83.43;99233.55;84560;1332;24281;-76
2022/01/03 09:21:03;;;;;;;11.40;5.60;;;;;;;8.00;83.44;99235.08;84527;1331;25429;-76
2022/01/03 09:23:17;;;;;;;8.40;4.90;;;;;;;8.00;83.30;99233.16;84585;1332;23990;-75
2022/01/03 09:30:27;;;;;;;6.90;5.20;;;;;;;8.09;83.37;99232.94;84594;1334;22620;-71
2022/01/03 09:32:40;;;;;;;8.00;5.90;;;;;;;8.10;83.36;99233.39;84591;1334;22604;-70
2022/01/03 09:34:49;;;;;;;9.20;5.60;;;;;;;8.11;83.44;99228.33;84587;1330;22792;-75
2022/01/03 09:36:58;;;;;;;6.80;5.50;;;;;;;8.12;83.40;99225.13;84584;1331;22636;-76
2022/01/03 09:39:10;;;;;;;8.40;5.10;;;;;;;8.11;83.38;99223.28;84582;1330;25395;-75
2022/01/03 09:41:22;;;;;;;5.80;4.80;;;;;;;8.11;83.34;99222.23;84613;1332;23054;-71
2022/01/03 09:43:38;;;;;;;5.10;4.40;;;;;;;8.12;83.40;99221.69;84596;1333;25597;-72
2022/01/03 09:45:48;;;;;;;5.40;4.50;;;;;;;8.13;83.41;99219.02;84580;1328;22637;-74
2022/01/03 09:47:59;;;;;;;;;;;;;;;8.15;83.50;99219.62;84582;1331;22570;-75
2022/01/03 09:50:12;;;;;;;5.20;4.30;;;;;;;8.15;83.56;99220.17;84562;1331;22637;-75
2022/01/03 09:52:23;;;;;;;5.50;4.60;;;;;;;8.15;83.63;99215.27;84584;1328;22661;-74
2022/01/03 09:54:33;;;;;;;6.60;4.40;;;;;;;8.15;83.59;99218.77;84613;1326;22625;-72
2022/01/03 09:56:43;;;;;;;5.30;4.80;;;;;;;8.12;83.68;99217.34;84600;1332;23825;-74
2022/01/03 09:58:56;;;;;;;6.30;4.40;;;;;;;8.09;83.59;99214.52;84576;1326;25263;-76
2022/01/03 10:01:09;;;;;;;6.10;3.70;;;;;;;8.09;83.73;99210.21;84615;1327;22803;-74
2022/01/03 10:03:18;;;;;;;6.90;4.30;;;;;;;8.09;83.82;99210.88;84585;1332;22602;-74
2022/01/03 10:05:31;;;;;;;5.50;3.50;;;;;;;8.10;83.97;99211.67;84621;1329;22569;-75
2022/01/03 10:07:47;;;;;;;4.90;4.10;;;;;;;8.12;84.02;99213.51;84589;1332;25454;-74
2022/01/03 10:10:03;;;;;;;6.90;3.60;;;;;;;8.13;84.21;99211.40;84540;1331;22581;-74
2022/01/03 10:12:14;;;;;;;4.70;3.60;;;;;;;8.16;84.26;99207.41;84602;1331;22661;-74
2022/01/03 10:14:24;;;;;;;5.30;4.30;;;;;;;8.17;84.25;99208.92;84554;1332;22610;-74
2022/01/03 10:16:37;;;;;;;6.60;4.50;;;;;;;8.17;84.36;99206.86;84583;1333;23089;-71
2022/01/03 10:18:51;;;;;;;6.00;3.70;;;;;;;8.16;84.26;99210.55;84598;1330;22594;-71
2022/01/03 10:21:04;;;;;;;4.40;3.50;;;;;;;8.15;84.18;99210.95;84637;1330;22619;-71
2022/01/03 10:23:21;;;;;;;4.20;3.30;;;;;;;8.14;84.40;99208.54;84610;1330;22609;-71
2022/01/03 10:25:34;;;;;;;5.30;3.70;;;;;;;8.16;84.44;99212.09;84559;1330;22880;-76
2022/01/03 10:27:54;;;;;;;4.40;3.60;;;;;;;8.17;84.46;99208.94;84587;1330;25483;-74
2022/01/03 10:30:12;;;;;;;8.10;5.00;;;;;;;8.18;84.60;99208.73;84553;1327;22617;-75
2022/01/03 10:32:29;;;;;;;4.50;3.70;;;;;;;8.18;84.70;99209.77;84590;1330;24002;-74
2022/01/03 10:34:46;;;;;;;4.60;3.60;;;;;;;8.19;84.85;99209.03;84593;1330;23900;-73
2022/01/03 10:36:59;;;;;;;4.00;3.60;;;;;;;8.23;84.88;99209.55;84580;1329;22607;-75
2022/01/03 10:39:20;;;;;;;4.10;3.70;;;;;;;8.25;84.91;99210.46;84598;1329;22626;-75